Flight Track Log - Related Links

Times and Time Zones

All times are in EDT time to prevent confusion due to time zone crossing. See the JBU425 flight status page for this flight to view local times or setup timezone preferences in your user account.

Time Position Orientation Groundspeed Altitude Reporting Facility
EDT Latitude Longitude Course Direction KTS MPH feet Rate Location/Type
Tue 10:11:38 PM 40.6320 -73.7810 217° Southwest 121 139 100  Level FlightAware ADS-B
Tue 10:12:02 PM 40.6410 -73.7990 303° West 149 171 800 2,167 Climbing FlightAware ADS-B
Tue 10:12:14 PM 40.6430 -73.8090 285° West 152 175 1,400 2,400 Climbing FlightAware ADS-B
Tue 10:12:42 PM 40.6370 -73.8370 254° West 186 214 2,400 2,000 Climbing FlightAware ADS-B
Tue 10:13:02 PM 40.6290 -73.8580 243° Southwest 217 250 3,000 2,100 Climbing FlightAware ADS-B
Tue 10:13:22 PM 40.6180 -73.8830 240° Southwest 244 281 3,800 2,357 Climbing FlightAware ADS-B
Tue 10:13:30 PM 40.6120 -73.8930 232° Southwest 257 296 4,100 2,625 Climbing FlightAware ADS-B
Tue 10:13:38 PM 40.6050 -73.9010 221° Southwest 266 306 4,500 3,300 Climbing FlightAware ADS-B
Tue 10:13:50 PM 40.5930 -73.9120 215° Southwest 273 314 5,200 4,167 Climbing FlightAware ADS-B
Tue 10:14:14 PM 40.5660 -73.9340 212° Southwest 273 314 7,000 4,714 Climbing FlightAware ADS-B
Tue 10:14:32 PM 40.5470 -73.9490 211° Southwest 265 305 8,500 4,143 Climbing FlightAware ADS-B
Tue 10:14:56 PM 40.5220 -73.9700 213° Southwest 269 310 9,900 2,679 Climbing FlightAware ADS-B
Tue 10:15:28 PM 40.4870 -73.9990 212° Southwest 304 350 11,000 1,029 Climbing FlightAware ADS-B
Tue 10:16:06 PM 40.4380 -74.0390 212° Southwest 333 383 11,100 310 Climbing FlightAware ADS-B
Tue 10:16:26 PM 40.4130 -74.0630 216° Southwest 333 383 11,300 1,962 Climbing FlightAware ADS-B
Tue 10:16:58 PM 40.3850 -74.1170 236° Southwest 339 390 12,800 2,917 Climbing FlightAware ADS-B
Tue 10:17:38 PM 40.3550 -74.1890 241° Southwest 342 394 14,800 2,919 Climbing FlightAware ADS-B
Tue 10:18:12 PM 40.3430 -74.2560 257° West 346 398 16,400 2,571 Climbing FlightAware ADS-B
Tue 10:18:48 PM 40.3300 -74.3290 257° West 355 409 17,800 2,382 Climbing FlightAware ADS-B
Tue 10:19:20 PM 40.3180 -74.3980 257° West 364 419 19,100 2,559 Climbing FlightAware ADS-B
Tue 10:19:56 PM 40.3020 -74.4790 256° West 368 423 20,700 2,384 Climbing FlightAware ADS-B
Tue 10:20:33 PM 40.2870 -74.5570 256° West 372 428 22,000 1,913 Climbing FlightAware ADS-B
Tue 10:21:05 PM 40.2750 -74.6250 257° West 382 440 22,900 1,853 Climbing FlightAware ADS-B
Tue 10:21:41 PM 40.2590 -74.7060 256° West 388 447 24,100 1,833 Climbing FlightAware ADS-B
Tue 10:22:17 PM 40.2430 -74.7890 256° West 394 453 25,100 1,886 Climbing FlightAware ADS-B
Tue 10:22:51 PM 40.2280 -74.8720 257° West 398 458 26,300 1,765 Climbing FlightAware ADS-B
Tue 10:23:25 PM 40.2130 -74.9480 256° West 406 467 27,100 1,440 Climbing FlightAware ADS-B
Tue 10:23:41 PM 40.2040 -74.9880 254° West 412 474 27,500 1,500 Climbing FlightAware ADS-B
Tue 10:23:53 PM 40.1930 -75.0150 242° Southwest 415 478 27,800 1,364 Climbing FlightAware ADS-B
Tue 10:24:25 PM 40.1590 -75.0820 236° Southwest 422 486 28,500 1,583 Climbing FlightAware ADS-B
Tue 10:25:05 PM 40.1160 -75.1630 235° Southwest 419 482 29,700 1,667 Climbing FlightAware ADS-B
Tue 10:25:37 PM 40.0800 -75.2320 236° Southwest 421 484 30,500 1,676 Climbing FlightAware ADS-B
Tue 10:26:13 PM 40.0420 -75.3040 235° Southwest 415 478 31,600 1,667 Climbing FlightAware ADS-B
Tue 10:26:49 PM 40.0010 -75.3820 236° Southwest 416 479 32,500 1,371 Climbing FlightAware ADS-B
Tue 10:27:23 PM 39.9660 -75.4490 236° Southwest 416 479 33,200 1,457 Climbing FlightAware ADS-B
Tue 10:27:59 PM 39.9250 -75.5260 235° Southwest 410 472 34,200 1,371 Climbing FlightAware ADS-B
Tue 10:28:33 PM 39.8910 -75.5910 236° Southwest 411 473 34,800 1,200 Climbing FlightAware ADS-B
Tue 10:29:09 PM 39.8500 -75.6670 235° Southwest 409 471 35,600 1,167 Climbing FlightAware ADS-B
Tue 10:29:45 PM 39.8130 -75.7380 236° Southwest 410 472 36,200 1,083 Climbing FlightAware ADS-B
Tue 10:30:21 PM 39.7710 -75.8150 235° Southwest 408 470 36,900 1,235 Climbing FlightAware ADS-B
Tue 10:30:53 PM 39.7380 -75.8780 236° Southwest 403 464 37,600 971 Climbing FlightAware ADS-B
Tue 10:31:29 PM 39.7000 -75.9480 235° Southwest 404 465 38,000 343 Climbing FlightAware ADS-B
Tue 10:32:03 PM 39.6630 -76.0180 236° Southwest 403 464 38,000  Level FlightAware ADS-B
Tue 10:32:41 PM 39.6230 -76.0920 235° Southwest 408 470 38,000  Level FlightAware ADS-B
Tue 10:33:13 PM 39.5870 -76.1580 235° Southwest 408 470 38,000  Level FlightAware ADS-B
Tue 10:33:49 PM 39.5490 -76.2300 236° Southwest 410 472 38,000  Level FlightAware ADS-B
Tue 10:34:25 PM 39.5100 -76.3010 235° Southwest 410 472 38,000  Level FlightAware ADS-B
Tue 10:35:01 PM 39.4700 -76.3750 235° Southwest 410 472 38,000  Level FlightAware ADS-B
Tue 10:35:31 PM 39.4350 -76.4310 231° Southwest 413 475 38,000  Level FlightAware ADS-B
Tue 10:36:09 PM 39.3890 -76.5040 231° Southwest 413 475 38,000  Level FlightAware ADS-B
Tue 10:36:45 PM 39.3460 -76.5720 231° Southwest 412 474 38,000  Level FlightAware ADS-B
Tue 10:37:21 PM 39.3010 -76.6420 230° Southwest 414 476 38,000  Level FlightAware ADS-B
Tue 10:37:49 PM 39.2680 -76.6940 231° Southwest 415 478 38,000  Level FlightAware ADS-B
Tue 10:38:30 PM 39.2180 -76.7720 230° Southwest 416 479 38,000  Level FlightAware ADS-B
Tue 10:39:05 PM 39.1750 -76.8390 230° Southwest 417 480 38,000  Level FlightAware ADS-B
Tue 10:39:40 PM 39.1320 -76.9060 230° Southwest 417 480 38,000  Level FlightAware ADS-B
Tue 10:40:17 PM 39.0870 -76.9760 230° Southwest 419 482 38,000  Level FlightAware ADS-B
Tue 10:40:57 PM 39.0340 -77.0480 227° Southwest 422 486 38,000  Level FlightAware ADS-B
Tue 10:41:32 PM 38.9810 -77.1070 221° Southwest 423 487 38,000  Level FlightAware ADS-B
Tue 10:42:05 PM 38.9320 -77.1610 221° Southwest 422 486 38,000  Level FlightAware ADS-B
Tue 10:42:42 PM 38.8790 -77.2200 221° Southwest 421 484 38,000  Level FlightAware ADS-B
Tue 10:43:15 PM 38.8310 -77.2720 220° Southwest 422 486 38,000  Level FlightAware ADS-B
Tue 10:43:52 PM 38.7740 -77.3350 221° Southwest 424 488 38,000  Level FlightAware ADS-B
Tue 10:44:27 PM 38.7210 -77.3920 220° Southwest 425 489 38,000  Level FlightAware ADS-B
Tue 10:45:02 PM 38.6690 -77.4490 221° Southwest 426 490 38,000  Level FlightAware ADS-B
Tue 10:45:37 PM 38.6170 -77.5060 221° Southwest 424 488 38,000  Level FlightAware ADS-B
Tue 10:46:12 PM 38.5650 -77.5620 220° Southwest 423 487 38,000  Level FlightAware ADS-B
Tue 10:46:45 PM 38.5150 -77.6160 220° Southwest 423 487 38,000  Level FlightAware ADS-B
Tue 10:47:20 PM 38.4630 -77.6720 220° Southwest 424 488 38,000  Level FlightAware ADS-B
Tue 10:47:57 PM 38.4070 -77.7330 220° Southwest 426 490 38,000  Level FlightAware ADS-B
Tue 10:48:32 PM 38.3540 -77.7900 220° Southwest 425 489 38,000  Level FlightAware ADS-B
Tue 10:49:07 PM 38.3040 -77.8440 220° Southwest 425 489 38,000  Level FlightAware ADS-B
Tue 10:49:43 PM 38.2480 -77.9030 220° Southwest 424 488 38,000  Level FlightAware ADS-B
Tue 10:50:19 PM 38.1940 -77.9610 220° Southwest 425 489 38,000  Level FlightAware ADS-B
Tue 10:50:51 PM 38.1460 -78.0120 220° Southwest 425 489 38,000  Level FlightAware ADS-B
Tue 10:51:27 PM 38.0910 -78.0710 220° Southwest 427 491 38,000  Level FlightAware ADS-B
Tue 10:52:03 PM 38.0370 -78.1280 220° Southwest 430 495 38,000  Level FlightAware ADS-B
Tue 10:52:35 PM 37.9870 -78.1800 219° Southwest 433 498 38,000  Level FlightAware ADS-B
Tue 10:53:08 PM 37.9360 -78.2280 217° Southwest 435 501 38,000  Level FlightAware ADS-B
Tue 10:53:47 PM 37.8720 -78.2890 217° Southwest 435 501 38,000  Level FlightAware ADS-B
Tue 10:54:23 PM 37.8130 -78.3450 217° Southwest 435 501 38,000  Level FlightAware ADS-B
Tue 10:54:57 PM 37.7560 -78.3980 216° Southwest 437 503 38,000  Level FlightAware ADS-B
Tue 10:55:33 PM 37.6980 -78.4530 217° Southwest 439 505 38,000  Level FlightAware ADS-B
Tue 10:56:09 PM 37.6410 -78.5080 217° Southwest 440 506 38,000  Level FlightAware ADS-B
Tue 10:56:39 PM 37.5910 -78.5550 217° Southwest 440 506 38,000  Level FlightAware ADS-B
Tue 10:57:15 PM 37.5320 -78.6100 216° Southwest 441 507 38,000  Level FlightAware ADS-B
Tue 10:57:53 PM 37.4720 -78.6670 217° Southwest 442 509 38,000  Level FlightAware ADS-B
Tue 10:58:24 PM 37.4200 -78.7160 217° Southwest 443 510 38,000  Level FlightAware ADS-B
Tue 10:59:01 PM 37.3600 -78.7720 217° Southwest 444 511 38,000  Level FlightAware ADS-B
Tue 10:59:38 PM 37.2990 -78.8290 217° Southwest 446 513 38,000  Level FlightAware ADS-B
Tue 11:00:15 PM 37.2350 -78.8890 217° Southwest 448 516 38,000  Level FlightAware ADS-B
Tue 11:00:47 PM 37.1840 -78.9370 217° Southwest 448 516 38,000  Level FlightAware ADS-B
Tue 11:01:21 PM 37.1290 -78.9880 216° Southwest 448 516 38,000  Level FlightAware ADS-B
Tue 11:01:59 PM 37.0680 -79.0440 216° Southwest 441 507 38,000  Level FlightAware ADS-B
Tue 11:02:34 PM 37.0070 -79.1000 216° Southwest 442 509 38,000  Level FlightAware ADS-B
Tue 11:03:04 PM 36.9590 -79.1450 217° Southwest 443 510 38,000  Level FlightAware ADS-B
Tue 11:03:42 PM 36.8960 -79.2040 217° Southwest 444 511 38,000  Level FlightAware ADS-B
Tue 11:04:20 PM 36.8290 -79.2650 216° Southwest 452 520 38,000  Level FlightAware ADS-B
Tue 11:04:52 PM 36.7740 -79.3160 217° Southwest 454 522 38,000  Level FlightAware ADS-B
Tue 11:05:24 PM 36.7180 -79.3670 216° Southwest 454 522 38,000  Level FlightAware ADS-B
Tue 11:06:04 PM 36.6530 -79.4270 217° Southwest 454 522 38,000  Level FlightAware ADS-B
Tue 11:06:36 PM 36.5970 -79.4770 216° Southwest 455 524 38,000  Level FlightAware ADS-B
Tue 11:07:10 PM 36.5400 -79.5290 216° Southwest 456 525 38,000  Level FlightAware ADS-B
Tue 11:07:46 PM 36.4800 -79.5840 216° Southwest 455 524 38,000  Level FlightAware ADS-B
Tue 11:08:21 PM 36.4210 -79.6380 216° Southwest 455 524 38,000  Level FlightAware ADS-B
Tue 11:08:56 PM 36.3620 -79.6910 216° Southwest 447 514 38,000  Level FlightAware ADS-B
Tue 11:09:31 PM 36.3050 -79.7430 216° Southwest 455 524 38,000  Level FlightAware ADS-B
Tue 11:10:06 PM 36.2430 -79.7990 216° Southwest 455 524 38,000  Level FlightAware ADS-B
Tue 11:10:41 PM 36.1850 -79.8510 216° Southwest 455 524 38,000  Level FlightAware ADS-B
Tue 11:11:21 PM 36.1180 -79.9120 216° Southwest 456 525 38,000  Level FlightAware ADS-B
Tue 11:11:51 PM 36.0620 -79.9580 214° Southwest 454 522 38,000  Level FlightAware ADS-B
Tue 11:12:46 PM 35.9640 -80.0150 205° Southwest 468 539 38,000  Level FlightAware ADS-B
Tue 11:13:26 PM 35.8820 -80.0580 203° Southwest 469 540 38,000  Level FlightAware ADS-B
Tue 11:13:56 PM 35.8160 -80.0920 203° Southwest 468 539 38,000  Level FlightAware ADS-B
Tue 11:14:31 PM 35.7510 -80.1250 202° Southwest 469 540 38,000  Level FlightAware ADS-B
Tue 11:15:13 PM 35.6690 -80.1660 202° Southwest 467 537 38,000  Level FlightAware ADS-B
Tue 11:15:43 PM 35.5980 -80.2020 202° Southwest 465 535 38,000  Level FlightAware ADS-B
Tue 11:16:19 PM 35.5280 -80.2370 202° Southwest 464 534 38,000  Level FlightAware ADS-B
Tue 11:16:55 PM 35.4560 -80.2730 202° Southwest 463 533 38,000  Level FlightAware ADS-B
Tue 11:17:31 PM 35.3840 -80.3090 202° Southwest 460 529 38,000  Level FlightAware ADS-B
Tue 11:18:03 PM 35.3220 -80.3400 202° Southwest 458 527 38,000  Level FlightAware ADS-B
Tue 11:18:39 PM 35.2500 -80.3760 202° Southwest 458 527 38,000  Level FlightAware ADS-B
Tue 11:19:15 PM 35.1810 -80.4100 202° Southwest 459 528 38,000  Level FlightAware ADS-B
Tue 11:19:51 PM 35.1090 -80.4450 202° Southwest 462 532 38,000  Level FlightAware ADS-B
Tue 11:20:25 PM 35.0410 -80.4790 202° Southwest 464 534 38,000  Level FlightAware ADS-B
Tue 11:21:02 PM 34.9680 -80.5150 202° Southwest 466 536 38,000  Level FlightAware ADS-B
Tue 11:21:33 PM 34.9040 -80.5460 202° Southwest 466 536 38,000  Level FlightAware ADS-B
Tue 11:22:09 PM 34.8320 -80.5820 202° Southwest 468 539 38,000  Level FlightAware ADS-B
Tue 11:22:45 PM 34.7600 -80.6170 202° Southwest 468 539 38,000  Level FlightAware ADS-B
Tue 11:23:17 PM 34.6960 -80.6480 202° Southwest 469 540 38,000  Level FlightAware ADS-B
Tue 11:23:55 PM 34.6190 -80.6860 202° Southwest 467 537 38,000  Level FlightAware ADS-B
Tue 11:24:31 PM 34.5470 -80.7210 202° Southwest 465 535 38,000  Level FlightAware ADS-B
Tue 11:25:05 PM 34.4780 -80.7540 202° Southwest 464 534 38,000  Level FlightAware ADS-B
Tue 11:25:41 PM 34.4080 -80.7880 202° Southwest 464 534 38,000  Level FlightAware ADS-B
Tue 11:26:14 PM 34.3420 -80.8210 202° Southwest 465 535 38,000  Level FlightAware ADS-B
Tue 11:26:49 PM 34.2710 -80.8550 202° Southwest 465 535 38,000  Level FlightAware ADS-B
Tue 11:27:25 PM 34.2020 -80.8880 202° Southwest 465 535 38,000  Level FlightAware ADS-B
Tue 11:27:59 PM 34.1360 -80.9200 202° Southwest 465 535 38,000  Level FlightAware ADS-B
Tue 11:28:31 PM 34.0670 -80.9470 198° South 469 540 38,000  Level FlightAware ADS-B
Tue 11:29:14 PM 33.9790 -80.9760 195° South 469 540 38,000  Level FlightAware ADS-B
Tue 11:29:49 PM 33.9070 -80.9990 195° South 468 539 38,000  Level FlightAware ADS-B
Tue 11:30:26 PM 33.8320 -81.0240 195° South 469 540 38,000  Level FlightAware ADS-B
Tue 11:30:59 PM 33.7590 -81.0480 195° South 472 543 38,000  Level FlightAware ADS-B
Tue 11:31:34 PM 33.6830 -81.0730 195° South 474 545 38,000  Level FlightAware ADS-B
Tue 11:32:10 PM 33.6140 -81.0960 196° South 475 547 38,000  Level FlightAware ADS-B
Tue 11:32:44 PM 33.5420 -81.1200 196° South 475 547 38,000  Level FlightAware ADS-B
Tue 11:33:19 PM 33.4610 -81.1460 195° South 475 547 38,000  Level FlightAware ADS-B
Tue 11:33:54 PM 33.3860 -81.1710 196° South 475 547 38,000  Level FlightAware ADS-B
Tue 11:34:34 PM 33.3010 -81.1980 195° South 475 547 38,000  Level FlightAware ADS-B
Tue 11:35:04 PM 33.2370 -81.2190 195° South 476 548 38,000  Level FlightAware ADS-B
Tue 11:35:40 PM 33.1620 -81.2430 195° South 477 549 38,000  Level FlightAware ADS-B
Tue 11:36:19 PM 33.0780 -81.2710 196° South 478 550 38,000  Level FlightAware ADS-B
Tue 11:36:52 PM 33.0090 -81.2930 195° South 480 552 38,000  Level FlightAware ADS-B
Tue 11:37:27 PM 32.9340 -81.3170 195° South 482 555 38,000  Level FlightAware ADS-B
Tue 11:37:59 PM 32.8660 -81.3390 195° South 481 554 38,000 88 Level FlightAware ADS-B
Tue 11:38:35 PM 32.7870 -81.3650 195° South 478 550 38,100 82 Climbing FlightAware ADS-B
Tue 11:39:12 PM 32.7070 -81.3910 195° South 475 547 38,100 -81 Level FlightAware ADS-B
Tue 11:39:49 PM 32.6280 -81.4160 195° South 472 543 38,000 -88 Descending FlightAware ADS-B
Tue 11:40:20 PM 32.5640 -81.4360 195° South 470 541 38,000  Level FlightAware ADS-B
Tue 11:40:56 PM 32.4900 -81.4600 195° South 469 540 38,000  Level FlightAware ADS-B
Tue 11:41:33 PM 32.4110 -81.4850 195° South 468 539 38,000  Level FlightAware ADS-B
Tue 11:42:30 PM 32.3400 -81.5080 195° South 471 542 38,000  Level FlightAware ADS-B
Tue 11:43:00 PM 32.2300 -81.5430 195° South 472 543 38,000  Level FlightAware ADS-B
Tue 11:43:39 PM 32.1600 -81.5650 195° South 472 543 38,000  Level FlightAware ADS-B
Tue 11:44:15 PM 32.0810 -81.5900 195° South 470 541 38,000  Level FlightAware ADS-B
Tue 11:45:07 PM 31.9710 -81.6250 195° South 466 536 38,000  Level FlightAware ADS-B
Tue 11:45:43 PM 31.9070 -81.6450 195° South 466 536 38,000  Level FlightAware ADS-B
Tue 11:46:19 PM 31.8430 -81.6650 195° South 466 536 38,000  Level FlightAware ADS-B
Tue 11:46:50 PM 31.7480 -81.6950 195° South 465 535 38,000  Level FlightAware ADS-B
Tue 11:47:26 PM 31.6720 -81.7190 195° South 466 536 38,000  Level FlightAware ADS-B
Tue 11:48:05 PM 31.6020 -81.7410 195° South 466 536 38,000  Level FlightAware ADS-B
Tue 11:48:40 PM 31.5180 -81.7680 195° South 466 536 38,000  Level FlightAware ADS-B
Tue 11:49:11 PM 31.4570 -81.7870 195° South 465 535 38,000  Level FlightAware ADS-B
Tue 11:49:47 PM 31.3780 -81.8110 195° South 464 534 38,000  Level FlightAware ADS-B
Tue 11:50:24 PM 31.3010 -81.8350 195° South 463 533 38,000  Level FlightAware ADS-B
Tue 11:51:01 PM 31.2250 -81.8590 195° South 465 535 38,000  Level FlightAware ADS-B
Tue 11:51:40 PM 31.1490 -81.8830 195° South 463 533 38,000  Level FlightAware ADS-B
Tue 11:52:17 PM 31.0680 -81.9070 194° South 460 529 38,000 83 Level FlightAware ADS-B
Tue 11:52:52 PM 30.9960 -81.9300 195° South 455 524 38,100  Climbing FlightAware ADS-B
Tue 11:53:24 PM 30.9340 -81.9490 195° South 454 522 38,000 -87 Descending FlightAware ADS-B
Tue 11:54:01 PM 30.8570 -81.9720 194° South 453 521 38,000  Level FlightAware ADS-B
Tue 11:54:36 PM 30.7870 -81.9940 195° South 452 520 38,000  Level FlightAware ADS-B
Tue 11:55:13 PM 30.7100 -82.0180 195° South 455 524 38,000  Level FlightAware ADS-B
Tue 11:55:44 PM 30.6450 -82.0380 195° South 456 525 38,000  Level FlightAware ADS-B
Tue 11:56:19 PM 30.5750 -82.0590 194° South 458 527 38,000  Level FlightAware ADS-B
Tue 11:56:52 PM 30.5110 -82.0790 195° South 456 525 38,000 86 Level FlightAware ADS-B
Tue 11:57:29 PM 30.4330 -82.1020 194° South 453 521 38,100  Climbing FlightAware ADS-B
Tue 11:58:04 PM 30.3610 -82.1240 195° South 450 518 38,000 -85 Descending FlightAware ADS-B
Tue 11:58:40 PM 30.2900 -82.1350 188° South 454 522 38,000  Level FlightAware ADS-B
Tue 11:59:17 PM 30.2130 -82.1410 184° South 455 524 38,000  Level FlightAware ADS-B
Tue 11:59:52 PM 30.1380 -82.1470 184° South 455 524 38,000  Level FlightAware ADS-B
Wed 12:00:24 AM 30.0710 -82.1520 184° South 455 524 38,000  Level FlightAware ADS-B
Wed 12:01:01 AM 29.9910 -82.1590 184° South 455 524 38,000  Level FlightAware ADS-B
Wed 12:01:33 AM 29.9260 -82.1640 184° South 455 524 38,000  Level FlightAware ADS-B
Wed 12:02:10 AM 29.8460 -82.1700 184° South 457 526 38,000  Level FlightAware ADS-B
Wed 12:02:43 AM 29.7770 -82.1760 184° South 457 526 38,000 -686 Level FlightAware ADS-B
Wed 12:03:20 AM 29.6970 -82.1820 184° South 459 528 37,200 -1,622 Descending FlightAware ADS-B
Wed 12:03:57 AM 29.6200 -82.1880 184° South 454 522 36,000 -2,137 Descending FlightAware ADS-B
Wed 12:04:33 AM 29.5420 -82.1950 184° South 452 520 34,600 -2,687 Descending FlightAware ADS-B
Wed 12:05:04 AM 29.4790 -82.2000 184° South 460 529 33,000 -3,265 Descending FlightAware ADS-B
Wed 12:05:41 AM 29.4000 -82.2060 184° South 471 542 30,900 -3,667 Descending FlightAware ADS-B
Wed 12:06:16 AM 29.3220 -82.2120 184° South 481 554 28,600 -3,917 Descending FlightAware ADS-B
Wed 12:06:53 AM 29.2390 -82.2190 184° South 487 560 26,200 -3,706 Descending FlightAware ADS-B
Wed 12:07:24 AM 29.1680 -82.2240 184° South 482 555 24,400 -3,441 Descending FlightAware ADS-B
Wed 12:08:01 AM 29.0850 -82.2310 184° South 476 548 22,300 -3,324 Descending FlightAware ADS-B
Wed 12:08:38 AM 29.0060 -82.2370 184° South 461 531 20,300 -3,176 Descending FlightAware ADS-B
Wed 12:09:09 AM 28.9420 -82.2420 184° South 447 514 18,700 -3,353 Descending FlightAware ADS-B
Wed 12:09:46 AM 28.8660 -82.2480 184° South 439 505 16,500 -3,370 Descending FlightAware ADS-B
Wed 12:10:22 AM 28.7950 -82.2530 184° South 422 486 14,600 -3,000 Descending FlightAware ADS-B
Wed 12:10:52 AM 28.7350 -82.2570 183° South 408 470 13,200 -1,457 Descending FlightAware ADS-B
Wed 12:11:32 AM 28.6640 -82.2560 179° South 390 449 12,900 -257 Descending FlightAware ADS-B
Wed 12:12:02 AM 28.6080 -82.2550 179° South 392 451 12,900 -321 Level FlightAware ADS-B
Wed 12:12:28 AM 28.5620 -82.2640 190° South 388 447 12,600 -1,241 Descending FlightAware ADS-B
Wed 12:13:00 AM 28.5130 -82.2940 208° Southwest 359 413 11,700 -1,739 Descending FlightAware ADS-B
Wed 12:13:37 AM 28.4630 -82.3250 209° Southwest 305 351 10,600 -2,105 Descending FlightAware ADS-B
Wed 12:13:57 AM 28.4390 -82.3400 209° Southwest 293 337 9,700 -2,927 Descending FlightAware ADS-B
Wed 12:14:18 AM 28.4140 -82.3560 209° Southwest 287 330 8,600 -3,081 Descending FlightAware ADS-B
Wed 12:14:34 AM 28.3960 -82.3670 208° Southwest 285 328 7,800 -3,086 Descending FlightAware ADS-B
Wed 12:14:53 AM 28.3730 -82.3810 208° Southwest 279 321 6,800 -3,231 Descending FlightAware ADS-B
Wed 12:15:13 AM 28.3510 -82.3940 207° Southwest 278 320 5,700 -3,349 Descending FlightAware ADS-B
Wed 12:15:36 AM 28.3250 -82.4110 210° Southwest 277 319 4,400 -2,842 Descending FlightAware ADS-B
Wed 12:16:10 AM 28.2890 -82.4320 207° Southwest 269 310 3,000 -1,667 Descending FlightAware ADS-B
Wed 12:16:30 AM 28.2660 -82.4460 208° Southwest 235 270 2,900 -150 Descending FlightAware ADS-B
Wed 12:16:50 AM 28.2470 -82.4570 207° Southwest 218 251 2,900  Level FlightAware ADS-B
Wed 12:17:05 AM 28.2340 -82.4650 208° Southwest 205 236 2,900  Level FlightAware ADS-B
Wed 12:17:30 AM 28.2130 -82.4780 209° Southwest 203 234 2,900  Level FlightAware ADS-B
Wed 12:17:47 AM 28.1980 -82.4870 208° Southwest 210 242 2,900  Level FlightAware ADS-B
Wed 12:18:09 AM 28.1800 -82.4990 210° Southwest 203 234 2,900  Level FlightAware ADS-B
Wed 12:18:31 AM 28.1620 -82.5100 208° Southwest 192 221 2,900  Level FlightAware ADS-B
Wed 12:18:47 AM 28.1500 -82.5180 210° Southwest 191 220 2,900 -214 Level FlightAware ADS-B
Wed 12:18:59 AM 28.1400 -82.5220 199° South 192 221 2,800 -900 Descending FlightAware ADS-B
Wed 12:19:07 AM 28.1330 -82.5240 194° South 192 221 2,600 -1,000 Descending FlightAware ADS-B
Wed 12:19:23 AM 28.1190 -82.5240 180° South 187 215 2,400 -882 Descending FlightAware ADS-B
Wed 12:19:41 AM 28.1030 -82.5240 180° South 179 206 2,100 -828 Descending FlightAware ADS-B
Wed 12:19:52 AM 28.0950 -82.5250 186° South 171 197 2,000 -750 Descending FlightAware ADS-B
Wed 12:20:13 AM 28.0800 -82.5250 180° South 147 169 1,700 -766 Descending FlightAware ADS-B
Wed 12:20:39 AM 28.0620 -82.5260 183° South 134 154 1,400 -783 Descending FlightAware ADS-B
Wed 12:20:59 AM 28.0500 -82.5260 180° South 134 154 1,100 -750 Descending FlightAware ADS-B
Wed 12:21:19 AM 28.0380 -82.5260 180° South 133 153 900 -585 Descending FlightAware ADS-B
Wed 12:21:40 AM 28.0250 -82.5270 184° South 133 153 700 -667 Descending FlightAware ADS-B
Wed 12:22:04 AM 28.0100 -82.5280 183° South 133 153 400 -667 Descending FlightAware ADS-B
Wed 12:22:16 AM 28.0020 -82.5280 180° South 133 153 300 -340 Descending FlightAware ADS-B
Wed 12:22:57 AM 27.9800 -82.5280 180° South 133 153 100 -293 Descending FlightAware ADS-B

Login

Don't have an account? Register now (free) for customized features, flight alerts, and more!